Relevés horaires Bouveret (Suisse)


Relevés horaires à Bouveret - Jeudi 19 Avr. 2018
Heure UTC1 Température [°C] Vent [km/h] Hum. [%] Pres.4 [hPa] Visi. [Km] Nébu. [octa] Préc.5 [mm] Cond.
2m. Res. Ros. Dir.2 Vit. Moy. Raf.3
23:00 18.6 18.4 5.3 SSE 16.7 -- 27.8 42 1023.7(-0.1/3h) -- -- -- --
22:00 17.9 17.3 6.2 SE 20.4 -- 31.5 46 1023.7 -- -- -- --
21:00 18.5 18.5 6.9 S 9.3 -- 22.2 47 1023.8(0.3/3h) -- -- -- --
20:00 19.3 19.3 7.4 SSE 13.0 -- 22.2 46 1023.7(0.2/3h) -- -- -- --
19:00 19.0 19.0 8.8 SSE 5.6 -- 9.3 52 1023.5(-0.2/3h) -- -- -- --
18:00 18.3 18.3 11.2 ENE 1.9 -- 9.3 63 1023.5(-0.6/3h) -- -- -- --
17:00 18.1 18.1 11.2 N 1.9 -- 9.3 64 1023.6(-1.2/3h) -- -- -- --
16:00 18.8 18.8 9.7 NO 3.7 -- 9.3 55 1023.7(-1.9/3h) -- -- -- --
15:00 17.8 17.8 10.4 O 9.3 -- 9.3 62 1024.2(-2.3/3h) -- -- -- --
14:00 18.1 18.1 6.7 O 7.4 -- 7.4 47 1024.9(-2.2/3h) -- -- -- --
13:00 15.9 15.9 10.1 NNO 3.7 -- 5.6 68 1026.2(-1.8/3h) -- -- -- --
12:00 15.2 15.2 11.0 NO 5.6 -- 16.7 76 1027(-1.5/3h) -- -- -- --
11:00 14.8 14.8 10.5 NO 5.6 -- 5.6 75 1027.7(-0.9/3h) -- -- -- --
10:00 13.6 13.6 10.9 NO 3.7 -- 5.6 84 1028.5(-0.4/3h) -- -- -- --
09:00 13.4 13.4 10.4 ONO 5.6 -- 16.7 82 1028.9(0.3/3h) -- -- -- --
08:00 13.1 13.1 9.3 O 5.6 -- 7.4 78 1029(0.6/3h) -- -- -- --
07:00 13.2 13.2 8.4 NO 3.7 -- 16.7 73 1028.9(1.0/3h) -- -- -- --
06:00 12.9 12.9 7.4 O 3.7 -- 9.3 69 1028.7(0.7/3h) -- -- -- --
05:00 12.1 12.1 6.5 SO 1.9 -- 9.3 69 1028.5(0.6/3h) -- -- -- --
04:00 12.3 12.3 7.2 OSO 1.9 -- 7.4 71 1028(0.2/3h) -- -- -- --
03:00 12.9 12.9 6.6 S 1.9 -- 9.3 66 1027.9(0.1/3h) -- -- -- --
02:00 13.6 13.6 7.7 SO 3.7 -- 7.4 67 1027.6(0.1/3h) -- -- -- --
01:00 14.6 14.6 7.6 NE 1.9 -- 9.3 63 1027.5(0.3/3h) -- -- -- --
00:00 15.7 15.7 7.5 NNE 1.9 -- 29.6 58 1027.4(0.8/3h) -- -- -- --

1 Coordinated Universal Time. Actuellement il est 01:00 locale et 23:00 UTC.

2 Le vent souffle depuis la direction indiquée vers la direction oposée.

3 Les rafales max. sont disponible 40 min après l'heure du relevé.

4 Pour les stations d'altitude (plus de 600m) le géopotentiel du niveau le plus proche de la pression obligatoire est indiqué.

5 Les stations disposant d'un diffuseur peuvent indiquer "trace". Cela signifie que des précipitations ont touchés le sol mais que la quantité est inférieure à 0.1 mm.

Copyright

Les données affichées sur cette page sont la propriété exclusive de Météo Suisse.

Récapitulatif de la journée
Température [°C] Vent [km/h] Ensoleillement4 [h] Precipitations totale5 [mm] Pression [Hpa]
Min1 Max.2 Moy.3 Max. Min Max.
11.8 19.4 0 31.5 0 h 0 min 0 1023.5 1029.0

1 Température minimale relevée entre 18:00 UTC la veille et 18:00 UTC le jour donné.

2 Température maximale relevée entre 06:00 UTC le jour donné et 06:00 UTC le lendemain.

3 Vent moyen de la journée basé sur les relevés horaires.

4 Ensoleillement en heures relevé entre 06:00 UTC la veille et 06:00 UTC le jour donné.

5 Précipitations totales tombées entre 06:00 UTC la jour donné et 06:00 UTC le lendemain.

Graphiques horaires